createdAt,value
2023-05-21T00:02:34.089Z,17.16
2023-05-21T00:07:52.906Z,17.1
2023-05-21T00:13:12.753Z,17.07
2023-05-21T00:18:32.566Z,17.03
2023-05-21T00:23:51.312Z,16.95
2023-05-21T00:29:10.648Z,16.93
2023-05-21T00:39:48.647Z,16.84
2023-05-21T00:45:07.451Z,16.79
2023-05-21T00:50:26.942Z,16.77
2023-05-21T00:55:45.865Z,16.73
2023-05-21T01:01:15.626Z,16.7
2023-05-21T01:06:25.135Z,16.66
2023-05-21T01:11:44.236Z,16.62
2023-05-21T01:22:22.912Z,16.57
2023-05-21T01:27:42.258Z,16.57
2023-05-21T01:33:01.380Z,16.53
2023-05-21T01:38:20.441Z,16.48
2023-05-21T01:48:58.407Z,16.42
2023-05-21T01:54:17.614Z,16.36
2023-05-21T02:04:55.288Z,16.33
2023-05-21T02:10:14.947Z,16.29
2023-05-21T02:20:53.805Z,16.23
2023-05-21T02:31:32.667Z,16.15
2023-05-21T02:36:51.605Z,16.12
2023-05-21T02:42:11.288Z,16.08
2023-05-21T02:47:30.799Z,16.04
2023-05-21T02:52:50.141Z,16.01
2023-05-21T02:58:09.200Z,15.98
2023-05-21T03:03:28.288Z,15.94
2023-05-21T03:14:06.624Z,15.87
2023-05-21T03:19:25.433Z,15.82
2023-05-21T03:24:44.714Z,15.77
2023-05-21T03:30:05.320Z,15.75
2023-05-21T03:40:43.697Z,15.64
2023-05-21T03:46:02.561Z,15.61
2023-05-21T03:56:40.928Z,15.54
2023-05-21T04:02:00.450Z,15.54
2023-05-21T04:07:20.090Z,15.51
2023-05-21T04:12:39.217Z,15.48
2023-05-21T04:17:58.907Z,15.48
2023-05-21T04:23:18.575Z,15.48
2023-05-21T04:28:37.066Z,15.48
2023-05-21T04:33:56.451Z,15.46
2023-05-21T04:39:15.847Z,15.46
2023-05-21T04:44:34.707Z,15.47
2023-05-21T04:50:03.527Z,15.5
2023-05-21T04:55:13.064Z,15.51
2023-05-21T05:00:32.236Z,15.5
2023-05-21T05:05:50.751Z,15.53
2023-05-21T05:11:10.744Z,15.54
2023-05-21T05:16:55.001Z,15.67
2023-05-21T05:22:14.088Z,15.61
2023-05-21T05:27:32.909Z,15.61
2023-05-21T05:32:52.083Z,15.67
2023-05-21T05:38:11.274Z,15.69
2023-05-21T05:43:30.081Z,15.75
2023-05-21T05:48:49.077Z,15.78
2023-05-21T05:54:08.233Z,15.81
2023-05-21T05:59:27.685Z,15.85
2023-05-21T06:04:46.710Z,15.91
2023-05-21T06:10:05.958Z,15.98
2023-05-21T06:15:25.073Z,16.04
2023-05-21T06:20:44.284Z,16.12
2023-05-21T06:26:03.686Z,16.23
2023-05-21T06:31:23.040Z,16.29
2023-05-21T06:36:41.875Z,16.37
2023-05-21T06:47:21.233Z,16.49
2023-05-21T06:52:40.065Z,16.53
2023-05-21T06:57:57.997Z,16.65
2023-05-21T07:03:16.936Z,16.76
2023-05-21T07:08:36.633Z,16.84
2023-05-21T07:13:56.007Z,16.99
2023-05-21T07:19:14.787Z,17.07
2023-05-21T07:24:34.079Z,17.27
2023-05-21T07:29:53.208Z,17.44
2023-05-21T07:35:12.041Z,17.62
2023-05-21T07:40:30.854Z,17.82
2023-05-21T07:45:49.802Z,18.04
2023-05-21T07:51:08.885Z,18.2
2023-05-21T07:56:27.995Z,18.39
2023-05-21T08:01:47.474Z,18.6
2023-05-21T08:07:06.698Z,18.84
2023-05-21T08:12:25.580Z,19.08
2023-05-21T08:17:44.417Z,19.28
2023-05-21T08:23:03.054Z,19.48
2023-05-21T08:33:40.994Z,19.83
2023-05-21T08:39:00.282Z,20.1
2023-05-21T08:44:19.798Z,20.29
2023-05-21T08:49:39.212Z,20.57
2023-05-21T08:54:58.710Z,20.87
2023-05-21T09:00:17.561Z,21.11
2023-05-21T09:05:37.161Z,21.32
2023-05-21T09:16:14.984Z,21.85
2023-05-21T09:21:33.899Z,22.05
2023-05-21T09:26:52.805Z,22.14
2023-05-21T09:32:12.386Z,22.26
2023-05-21T09:37:31.429Z,22.39
2023-05-21T09:42:50.358Z,22.59
2023-05-21T09:53:28.731Z,23.1
2023-05-21T09:58:47.895Z,23.25
2023-05-21T10:04:06.911Z,23.42
2023-05-21T10:09:26.072Z,23.61
2023-05-21T10:20:04.470Z,23.85
2023-05-21T10:25:33.265Z,24.01
2023-05-21T10:30:42.328Z,24.22
2023-05-21T10:36:01.830Z,24.3
2023-05-21T10:41:21.553Z,24.41
2023-05-21T10:52:00.148Z,24.61
2023-05-21T10:57:19.297Z,24.73
2023-05-21T11:02:38.612Z,24.84
2023-05-21T11:07:57.476Z,25
2023-05-21T11:13:16.605Z,25.07
2023-05-21T11:18:35.511Z,25.2
2023-05-21T11:23:54.206Z,25.27
2023-05-21T11:29:13.439Z,25.38
2023-05-21T11:34:32.490Z,25.41
2023-05-21T11:39:51.934Z,25.48
2023-05-21T11:45:11.570Z,25.49
2023-05-21T11:50:31.111Z,25.57
2023-05-21T11:55:50.449Z,25.61
2023-05-21T12:01:09.641Z,25.69
2023-05-21T12:06:28.822Z,25.73
2023-05-21T12:11:47.391Z,25.73
2023-05-21T12:17:06.719Z,25.85
2023-05-21T12:22:25.342Z,26
2023-05-21T12:33:03.502Z,26.29
2023-05-21T12:38:22.715Z,26.39
2023-05-21T12:43:41.698Z,26.53
2023-05-21T12:49:01.304Z,26.53
2023-05-21T12:59:39.922Z,26.51
2023-05-21T13:04:58.829Z,26.49
2023-05-21T13:10:18.427Z,26.51
2023-05-21T13:15:46.999Z,26.53
2023-05-21T13:20:56.896Z,26.51
2023-05-21T13:31:35.074Z,26.46
2023-05-21T13:42:13.124Z,26.49
2023-05-21T13:47:32.360Z,26.46
2023-05-21T13:52:51.803Z,26.44
2023-05-21T13:58:11.123Z,26.4
2023-05-21T14:03:30.637Z,26.41
2023-05-21T14:14:08.493Z,26.53
2023-05-21T14:19:29.175Z,26.57
2023-05-21T14:24:47.235Z,26.59
2023-05-21T14:30:06.714Z,26.6
2023-05-21T14:35:26.787Z,26.56
2023-05-21T14:40:45.762Z,26.47
2023-05-21T14:46:05.368Z,26.41
2023-05-21T14:56:43.094Z,26.3
2023-05-21T15:02:02.438Z,26.2
2023-05-21T15:07:21.734Z,26.13
2023-05-21T15:12:41.229Z,26.07
2023-05-21T15:23:19.296Z,25.93
2023-05-21T15:28:38.390Z,25.85
2023-05-21T15:33:59.070Z,25.78
2023-05-21T15:39:17.440Z,25.72
2023-05-21T15:44:36.721Z,25.63
2023-05-21T15:49:55.635Z,25.58
2023-05-21T15:55:15.183Z,25.49
2023-05-21T16:00:34.132Z,25.43
2023-05-21T16:05:53.543Z,25.37
2023-05-21T16:16:32.052Z,25.22
2023-05-21T16:21:51.374Z,25.17
2023-05-21T16:27:10.869Z,25.12
2023-05-21T16:32:29.771Z,25.06
2023-05-21T16:37:48.791Z,24.97
2023-05-21T16:48:26.828Z,24.86
2023-05-21T16:53:45.531Z,24.81
2023-05-21T16:59:04.334Z,24.74
2023-05-21T17:04:23.218Z,24.66
2023-05-21T17:09:42.516Z,24.59
2023-05-21T17:15:01.590Z,24.52
2023-05-21T17:20:21.263Z,24.47
2023-05-21T17:30:58.777Z,24.32
2023-05-21T17:41:37.071Z,24.16
2023-05-21T17:46:56.399Z,24.06
2023-05-21T17:52:15.977Z,23.96
2023-05-21T17:57:34.674Z,23.85
2023-05-21T18:02:54.194Z,23.72
2023-05-21T18:13:33.523Z,23.52
2023-05-21T18:18:52.713Z,23.42
2023-05-21T18:25:26.854Z,23.31
2023-05-21T18:29:32.854Z,23.21
2023-05-21T18:34:52.009Z,23.07
2023-05-21T18:40:11.504Z,22.97
2023-05-21T18:45:30.967Z,22.84
2023-05-21T18:56:08.997Z,22.61
2023-05-21T19:01:28.438Z,22.54
2023-05-21T19:12:06.755Z,22.32
2023-05-21T19:22:45.251Z,22.09
2023-05-21T19:28:04.065Z,22
2023-05-21T19:33:22.166Z,21.88
2023-05-21T19:38:40.755Z,21.81
2023-05-21T19:44:00.193Z,21.68
2023-05-21T19:54:38.301Z,21.52
2023-05-21T19:59:57.332Z,21.45
2023-05-21T20:05:17.033Z,21.34
2023-05-21T20:10:35.950Z,21.25
2023-05-21T20:17:09.991Z,21.18
2023-05-21T20:21:16.155Z,21.07
2023-05-21T20:26:34.757Z,21.01
2023-05-21T20:37:13.408Z,20.84
2023-05-21T20:42:31.874Z,20.76
2023-05-21T20:47:50.907Z,20.69
2023-05-21T20:53:09.675Z,20.61
2023-05-21T21:03:48.254Z,20.44
2023-05-21T21:09:07.115Z,20.36
2023-05-21T21:14:26.712Z,20.29
2023-05-21T21:19:45.988Z,20.2
2023-05-21T21:25:05.560Z,20.15
2023-05-21T21:35:44.289Z,19.99
2023-05-21T21:46:22.946Z,19.85
2023-05-21T21:51:42.093Z,19.76
2023-05-21T22:02:22.010Z,19.64
2023-05-21T22:07:40.985Z,19.57
2023-05-21T22:18:25.293Z,19.45
2023-05-21T22:23:37.497Z,19.36
2023-05-21T22:28:56.313Z,19.28
2023-05-21T22:34:15.614Z,19.2
2023-05-21T22:42:48.679Z,19.15
2023-05-21T22:44:52.209Z,19.08
2023-05-21T22:51:50.904Z,19.03
2023-05-21T22:55:31.267Z,18.95
2023-05-21T23:06:37.575Z,18.83
2023-05-21T23:11:56.470Z,18.74
2023-05-21T23:17:16.026Z,18.7
2023-05-21T23:22:35.794Z,18.62
2023-05-21T23:27:55.104Z,18.59
2023-05-21T23:33:14.197Z,18.52
2023-05-21T23:43:52.663Z,18.39
2023-05-21T23:54:30.232Z,18.25
2023-05-21T23:59:49.441Z,18.21
